Breanna — WDB5506 — position and weather

sailwx.info

Track history (hours):
 
Tides and Currents Weather Stations Pressure Air Temp Water Temp Dewpoint Dewpoint Depression Visibility Wind Speed Wind Dir Waves Ship Positions

Breanna

Owner: Horizon Enterprise, Inc, San Bernadino, CA. More information available from US FCC via Universal Licensing System and Coast Guard Vessel Documentation Center.

Last reported at 2018-May-07 18:01 UTC. Time now 2018-Jun-25 05:38 UTC.
Position N 32°37' W 117°25'.
Warning: this ship's position is 48 days out of date.

Length 28 m.

Type: Pleasure craft. MMSI: 338169044.

Date/timePositionNaut miles runAvg speedWind from/ knotsBaromVisibWave heightAir tempDewpointWater temp
2018-May-07 18:01N 32°37' W 117°25'310.5
2018-May-07 17:46N 32°40' W 117°26'310.7
2018-May-07 17:30N 32°42' W 117°28'510.3
2018-May-07 16:59N 32°47' W 117°30'510.0
2018-May-07 16:30N 32°51' W 117°32'510.0
2018-May-07 16:00N 32°56' W 117°34'510.0
2018-May-07 15:30N 33°01' W 117°37'5 9.9
2018-May-07 15:00N 33°05' W 117°39'510.0
2018-May-07 14:29N 33°10' W 117°41'710.0
2018-May-07 13:49N 33°16' W 117°44'310.1
2018-May-07 13:30N 33°19' W 117°45'810.3
2018-May-07 12:42N 33°27' W 117°49'210.3
2018-May-07 12:30N 33°29' W 117°50'  
Track history (hours):
 
Tides and Currents Weather Stations Pressure Air Temp Water Temp Dewpoint Dewpoint Depression Visibility Wind Speed Wind Dir Waves Ship Positions

Breanna

Owner: Horizon Enterprise, Inc, San Bernadino, CA. More information available from US FCC via Universal Licensing System and Coast Guard Vessel Documentation Center.

Last reported at 2018-May-07 18:01 UTC. Time now 2018-Jun-25 05:38 UTC.
Position N 32°37' W 117°25'.
Warning: this ship's position is 48 days out of date.

Length 28 m.

Type: Pleasure craft. MMSI: 338169044.

Date/timePositionNaut miles runAvg speedWind from/ knotsBaromVisibWave heightAir tempDewpointWater temp
2018-May-07 18:01N 32°37' W 117°25'310.5
2018-May-07 17:46N 32°40' W 117°26'310.7
2018-May-07 17:30N 32°42' W 117°28'510.3
2018-May-07 16:59N 32°47' W 117°30'510.0
2018-May-07 16:30N 32°51' W 117°32'510.0
2018-May-07 16:00N 32°56' W 117°34'510.0
2018-May-07 15:30N 33°01' W 117°37'5 9.9
2018-May-07 15:00N 33°05' W 117°39'510.0
2018-May-07 14:29N 33°10' W 117°41'710.0
2018-May-07 13:49N 33°16' W 117°44'310.1
2018-May-07 13:30N 33°19' W 117°45'810.3
2018-May-07 12:42N 33°27' W 117°49'210.3
2018-May-07 12:30N 33°29' W 117°50'  

Dump ship's entire track history